Terminal Aerodrome Forecast
Issued by NWS Sterling, VA

Current Version | Previous Version | Text Only | Print | Product List | Glossary Off
Versions: 1 2 3 4 5 6 7 8 9 10 11 12 13 14 15 16 17 18 19 20 21 22 23 24 25 26 27 28 29 30

000
FTUS41 KLWX 020947 AAB
TAFDCA
TAF AMD
KDCA 020947Z 0210/0306 01004KT 6SM -SHRA BR SCT050 BKN130
     FM021300 03004KT P6SM SCT050 BKN080
     FM030000 11004KT P6SM SCT050 BKN150=

USA.gov is the U.S. government's official web portal to all federal, state and local government web resources and services.